首页
METAR-TAF:

METAR-TAF

机场 :

Nordholz, 德国

纬度: 53-46N, 经度: 008-40E, 海拔: 23米

当前天气观测

该预报发布于1小时和0分钟前的00:20 UTC
风速14节,风向北转东北
温度 6°C
湿度 81%
气压 1006 hPa
能见度10公里或以上
多云层高于1500英尺
小毛毛雨

METAR: ETMN 180020Z 02014KT 9999 -DZ BKN015 06/03 Q1006 WHT

时间: 02:20 (01:20 UTC)


TAF: 丢失

超过4000个机场的气象观测和天气预报(METAR&TAF报告)。

可查询的气象台以黄色和红色小点在地图上表示。

将鼠标移到小点上方,可查看气象台名称。

然后点击查看天气观测和预报。

如需切换地图:点击带黑十字的绿色按钮放大地图;点击带横线的绿色按钮缩小地图;或者点击绿色箭头查看邻近地区的地图。


METAR-TAF: